createdAt,value
2023-04-27T00:01:12.363Z,101709.88
2023-04-27T00:04:14.625Z,101712.63
2023-04-27T00:07:16.766Z,101716.31
2023-04-27T00:10:18.431Z,101712.03
2023-04-27T00:13:20.052Z,101715.63
2023-04-27T00:16:21.613Z,101718.38
2023-04-27T00:19:23.536Z,101723.69
2023-04-27T00:22:25.098Z,101722.94
2023-04-27T00:25:26.816Z,101718.66
2023-04-27T00:28:28.519Z,101726.59
2023-04-27T00:31:30.300Z,101731.94
2023-04-27T00:34:31.898Z,101719.72
2023-04-27T00:37:33.457Z,101728.59
2023-04-27T00:40:34.962Z,101726.94
2023-04-27T00:43:44.060Z,101724.34
2023-04-27T00:46:45.700Z,101731.44
2023-04-27T00:49:47.370Z,101725.34
2023-04-27T00:52:49.014Z,101726.25
2023-04-27T00:55:50.740Z,101731.59
2023-04-27T00:58:52.290Z,101735.97
2023-04-27T01:01:55.197Z,101741.28
2023-04-27T01:04:57.258Z,101740.41
2023-04-27T01:07:58.944Z,101740.50
2023-04-27T01:11:00.484Z,101740.53
2023-04-27T01:14:06.956Z,101744.13
2023-04-27T01:17:08.630Z,101738.03
2023-04-27T01:20:11.216Z,101749.47
2023-04-27T01:23:16.621Z,101750.41
2023-04-27T01:26:18.730Z,101750.47
2023-04-27T01:29:21.443Z,101752.25
2023-04-27T01:32:23.041Z,101755.81
2023-04-27T01:35:25.698Z,101759.38
2023-04-27T01:38:29.306Z,101758.91
2023-04-27T01:41:31.450Z,101752.63
2023-04-27T01:44:33.285Z,101754.34
2023-04-27T01:47:34.977Z,101756.19
2023-04-27T01:50:36.521Z,101749.25
2023-04-27T01:53:38.093Z,101756.34
2023-04-27T01:56:39.732Z,101759.09
2023-04-27T01:59:41.377Z,101760.94
2023-04-27T02:02:43.097Z,101759.28
2023-04-27T02:05:44.772Z,101758.44
2023-04-27T02:08:46.348Z,101752.41
2023-04-27T02:11:47.914Z,101759.47
2023-04-27T02:14:49.430Z,101762.16
2023-04-27T02:17:51.188Z,101761.38
2023-04-27T02:20:53.057Z,101760.59
2023-04-27T02:23:54.577Z,101759.75
2023-04-27T02:26:56.358Z,101760.69
2023-04-27T02:29:58.105Z,101758.97
2023-04-27T02:33:00.924Z,101766.94
2023-04-27T02:36:02.594Z,101757.41
2023-04-27T02:39:04.213Z,101767.97
2023-04-27T02:42:05.797Z,101773.25
2023-04-27T02:45:08.252Z,101765.44
2023-04-27T02:48:09.868Z,101769.91
2023-04-27T02:51:11.506Z,101762.97
2023-04-27T02:54:13.047Z,101766.53
2023-04-27T02:57:14.597Z,101759.66
2023-04-27T03:00:17.008Z,101764.09
2023-04-27T03:03:18.766Z,101771.19
2023-04-27T03:06:20.444Z,101766.84
2023-04-27T03:09:21.977Z,101769.47
2023-04-27T03:12:23.489Z,101771.31
2023-04-27T03:15:25.123Z,101769.59
2023-04-27T03:18:26.734Z,101765.28
2023-04-27T03:21:28.662Z,101764.47
2023-04-27T03:24:31.211Z,101771.50
2023-04-27T03:27:32.792Z,101771.53
2023-04-27T03:30:34.360Z,101764.59
2023-04-27T03:33:36.565Z,101770.75
2023-04-27T03:36:38.130Z,101765.56
2023-04-27T03:39:39.821Z,101771.72
2023-04-27T03:42:41.418Z,101770.03
2023-04-27T03:45:43.032Z,101778.84
2023-04-27T03:48:44.613Z,101778.00
2023-04-27T03:51:46.169Z,101780.69
2023-04-27T03:54:47.702Z,101789.47
2023-04-27T03:57:49.297Z,101788.59
2023-04-27T04:00:50.803Z,101796.53
2023-04-27T04:03:52.642Z,101788.69
2023-04-27T04:06:54.310Z,101793.06
2023-04-27T04:09:57.110Z,101797.47
2023-04-27T04:12:58.848Z,101790.50
2023-04-27T04:16:05.722Z,101791.38
2023-04-27T04:19:07.460Z,101794.88
2023-04-27T04:22:09.001Z,101802.78
2023-04-27T04:25:10.746Z,101807.16
2023-04-27T04:28:12.271Z,101794.94
2023-04-27T04:31:15.152Z,101794.94
2023-04-27T04:34:16.801Z,101794.94
2023-04-27T04:37:20.994Z,101796.66
2023-04-27T04:40:22.507Z,101800.13
2023-04-27T04:43:24.471Z,101803.50
2023-04-27T04:46:26.093Z,101798.16
2023-04-27T04:49:27.821Z,101792.81
2023-04-27T04:52:29.423Z,101797.06
2023-04-27T04:55:31.144Z,101802.25
2023-04-27T04:58:33.343Z,101798.72
2023-04-27T05:01:35.037Z,101798.69
2023-04-27T05:04:36.755Z,101796.00
2023-04-27T05:07:38.555Z,101795.09
2023-04-27T05:10:40.088Z,101794.19
2023-04-27T05:13:41.711Z,101800.28
2023-04-27T05:16:43.504Z,101809.00
2023-04-27T05:19:45.187Z,101819.47
2023-04-27T05:22:46.815Z,101819.38
2023-04-27T05:25:48.395Z,101813.22
2023-04-27T05:28:49.957Z,101826.31
2023-04-27T05:31:51.549Z,101828.88
2023-04-27T05:34:53.146Z,101819.97
2023-04-27T05:37:54.966Z,101826.78
2023-04-27T05:40:58.522Z,101820.47
2023-04-27T05:44:00.121Z,101822.06
2023-04-27T05:47:01.929Z,101817.44
2023-04-27T05:50:03.962Z,101818.94
2023-04-27T05:53:05.749Z,101817.88
2023-04-27T05:56:07.804Z,101822.94
2023-04-27T05:59:09.968Z,101818.31
2023-04-27T06:02:11.748Z,101821.63
2023-04-27T06:05:13.406Z,101823.13
2023-04-27T06:08:15.384Z,101828.16
2023-04-27T06:11:17.181Z,101837.59
2023-04-27T06:14:18.841Z,101839.09
2023-04-27T06:17:21.814Z,101833.53
2023-04-27T06:20:23.530Z,101835.00
2023-04-27T06:23:25.182Z,101846.03
2023-04-27T06:26:27.030Z,101849.25
2023-04-27T06:29:28.570Z,101856.88
2023-04-27T06:32:30.158Z,101855.72
2023-04-27T06:35:31.765Z,101857.97
2023-04-27T06:38:33.318Z,101868.16
2023-04-27T06:41:34.885Z,101864.22
2023-04-27T06:44:36.814Z,101868.19
2023-04-27T06:47:38.634Z,101874.91
2023-04-27T06:50:40.582Z,101874.63
2023-04-27T06:53:42.489Z,101870.69
2023-04-27T06:56:44.873Z,101873.78
2023-04-27T06:59:46.482Z,101866.28
2023-04-27T07:02:48.107Z,101871.13
2023-04-27T07:05:51.712Z,101867.22
2023-04-27T07:08:53.274Z,101851.03
2023-04-27T07:11:55.455Z,101853.31
2023-04-27T07:14:57.020Z,101850.38
2023-04-27T07:17:58.694Z,101858.69
2023-04-27T07:21:00.314Z,101852.91
2023-04-27T07:24:01.952Z,101846.25
2023-04-27T07:27:04.154Z,101858.13
2023-04-27T07:30:09.248Z,101852.19
2023-04-27T07:33:10.843Z,101862.06
2023-04-27T07:36:12.489Z,101855.31
2023-04-27T07:39:15.120Z,101859.97
2023-04-27T07:42:16.819Z,101860.25
2023-04-27T07:45:18.391Z,101852.56
2023-04-27T07:48:20.159Z,101855.34
2023-04-27T07:51:21.935Z,101854.47
2023-04-27T07:54:23.525Z,101857.16
2023-04-27T07:57:25.187Z,101860.81
2023-04-27T08:00:26.967Z,101854.63
2023-04-27T08:03:28.912Z,101858.13
2023-04-27T08:06:31.185Z,101849.34
2023-04-27T08:09:33.011Z,101846.00
2023-04-27T08:12:35.021Z,101840.22
2023-04-27T08:15:37.422Z,101844.25
2023-04-27T08:18:39.032Z,101846.06
2023-04-27T08:21:40.702Z,101841.00
2023-04-27T08:24:42.318Z,101846.66
2023-04-27T08:27:43.951Z,101842.56
2023-04-27T08:30:45.870Z,101839.69
2023-04-27T08:33:48.024Z,101841.88
2023-04-27T08:36:49.639Z,101847.41
2023-04-27T08:39:51.238Z,101844.91
2023-04-27T08:42:57.661Z,101852.56
2023-04-27T08:45:59.233Z,101852.88
2023-04-27T08:49:01.212Z,101853.81
2023-04-27T08:52:02.823Z,101853.53
2023-04-27T08:55:04.993Z,101847.63
2023-04-27T08:58:06.582Z,101849.31
2023-04-27T09:01:08.513Z,101859.22
2023-04-27T09:04:11.853Z,101866.50
2023-04-27T09:07:18.132Z,101862.31
2023-04-27T09:10:19.827Z,101852.78
2023-04-27T09:13:21.705Z,101856.47
2023-04-27T09:16:24.770Z,101852.00
2023-04-27T09:19:30.818Z,101859.31
2023-04-27T09:22:32.414Z,101860.28
2023-04-27T09:25:34.563Z,101865.25
2023-04-27T09:28:39.680Z,101856.44
2023-04-27T09:31:41.964Z,101859.34
2023-04-27T09:34:44.310Z,101864.66
2023-04-27T09:37:45.969Z,101864.81
2023-04-27T09:40:49.072Z,101857.81
2023-04-27T09:43:51.612Z,101856.72
2023-04-27T09:46:53.669Z,101852.75
2023-04-27T09:49:56.342Z,101855.19
2023-04-27T09:52:58.025Z,101852.22
2023-04-27T09:56:16.503Z,101854.53
2023-04-27T09:59:45.664Z,101854.53
2023-04-27T10:03:05.297Z,101845.25
2023-04-27T10:06:10.202Z,101848.38
2023-04-27T10:09:12.711Z,101854.91
2023-04-27T10:12:17.259Z,101848.63
2023-04-27T10:15:19.606Z,101848.53
2023-04-27T10:18:29.797Z,101849.56
2023-04-27T10:21:32.891Z,101853.06
2023-04-27T10:24:41.300Z,101845.19
2023-04-27T10:27:42.903Z,101841.31
2023-04-27T10:30:48.476Z,101837.97
2023-04-27T10:33:50.114Z,101836.06
2023-04-27T10:37:06.620Z,101832.78
2023-04-27T10:40:19.298Z,101835.91
2023-04-27T10:43:28.117Z,101837.28
2023-04-27T10:46:29.791Z,101844.31
2023-04-27T10:49:31.446Z,101832.50
2023-04-27T10:52:33.397Z,101830.78
2023-04-27T10:55:36.243Z,101841.78
2023-04-27T11:01:42.875Z,101831.94
2023-04-27T11:04:44.732Z,101835.53
2023-04-27T11:07:47.949Z,101837.44
2023-04-27T11:10:52.382Z,101827.47
2023-04-27T11:13:55.829Z,101826.72
2023-04-27T11:16:57.421Z,101831.31
2023-04-27T11:19:58.975Z,101831.88
2023-04-27T11:23:00.570Z,101824.84
2023-04-27T11:26:09.998Z,101826.94
2023-04-27T11:29:14.100Z,101830.31
2023-04-27T11:32:23.781Z,101823.97
2023-04-27T11:35:34.681Z,101823.50
2023-04-27T11:38:36.349Z,101821.91
2023-04-27T11:41:39.225Z,101826.88
2023-04-27T11:44:40.982Z,101820.00
2023-04-27T11:47:47.424Z,101819.78
2023-04-27T11:50:50.220Z,101817.69
2023-04-27T11:53:52.289Z,101818.25
2023-04-27T11:56:53.816Z,101820.84
2023-04-27T12:00:02.613Z,101830.97
2023-04-27T12:03:04.506Z,101828.38
2023-04-27T12:06:27.713Z,101824.47
2023-04-27T12:09:29.043Z,101829.34
2023-04-27T12:12:31.254Z,101831.06
2023-04-27T12:15:32.818Z,101841.78
2023-04-27T12:18:34.400Z,101841.84
2023-04-27T12:21:36.084Z,101833.81
2023-04-27T12:24:37.630Z,101831.00
2023-04-27T12:27:39.267Z,101828.97
2023-04-27T12:30:40.930Z,101831.91
2023-04-27T12:33:42.562Z,101834.94
2023-04-27T12:36:44.159Z,101839.88
2023-04-27T12:39:45.714Z,101825.84
2023-04-27T12:42:47.274Z,101832.94
2023-04-27T12:45:48.896Z,101826.50
2023-04-27T12:48:50.896Z,101828.41
2023-04-27T12:51:53.024Z,101826.50
2023-04-27T12:54:57.781Z,101829.25
2023-04-27T12:57:59.388Z,101828.69
2023-04-27T13:01:00.990Z,101833.00
2023-04-27T13:04:04.221Z,101833.97
2023-04-27T13:07:06.532Z,101833.28
2023-04-27T13:10:08.509Z,101837.84
2023-04-27T13:13:10.078Z,101831.91
2023-04-27T13:16:12.657Z,101825.28
2023-04-27T13:19:14.255Z,101828.41
2023-04-27T13:22:16.561Z,101818.97
2023-04-27T13:25:19.885Z,101816.38
2023-04-27T13:28:21.729Z,101807.06
2023-04-27T13:31:23.337Z,101812.34
2023-04-27T13:34:24.998Z,101808.16
2023-04-27T13:37:27.134Z,101807.81
2023-04-27T13:40:29.285Z,101805.81
2023-04-27T13:43:31.348Z,101799.34
2023-04-27T13:46:33.058Z,101803.28
2023-04-27T13:49:34.674Z,101802.91
2023-04-27T13:52:37.042Z,101798.59
2023-04-27T13:55:38.703Z,101792.59
2023-04-27T13:58:41.610Z,101794.56
2023-04-27T14:01:43.573Z,101792.09
2023-04-27T14:04:45.357Z,101792.75
2023-04-27T14:07:47.106Z,101784.44
2023-04-27T14:10:49.255Z,101783.81
2023-04-27T14:13:50.831Z,101784.09
2023-04-27T14:16:53.333Z,101786.91
2023-04-27T14:19:55.138Z,101780.97
2023-04-27T14:22:58.462Z,101777.84
2023-04-27T14:26:00.240Z,101774.19
2023-04-27T14:29:01.834Z,101769.53
2023-04-27T14:32:04.395Z,101770.00
2023-04-27T14:35:07.075Z,101764.41
2023-04-27T14:38:08.713Z,101765.16
2023-04-27T14:41:10.330Z,101767.00
2023-04-27T14:44:11.974Z,101771.56
2023-04-27T14:47:13.599Z,101772.59
2023-04-27T14:50:15.211Z,101769.31
2023-04-27T14:53:17.229Z,101774.00
2023-04-27T14:56:18.811Z,101773.31
2023-04-27T14:59:20.459Z,101769.03
2023-04-27T15:02:22.090Z,101773.13
2023-04-27T15:05:23.705Z,101775.28
2023-04-27T15:08:25.322Z,101779.28
2023-04-27T15:11:26.940Z,101785.88
2023-04-27T15:14:28.528Z,101783.47
2023-04-27T15:17:30.127Z,101773.00
2023-04-27T15:20:32.545Z,101774.97
2023-04-27T15:23:35.099Z,101768.09
2023-04-27T15:26:36.895Z,101778.09
2023-04-27T15:29:38.464Z,101773.78
2023-04-27T15:32:40.656Z,101763.97
2023-04-27T15:35:42.797Z,101775.53
2023-04-27T15:38:44.449Z,101766.47
2023-04-27T15:41:46.039Z,101765.59
2023-04-27T15:44:47.758Z,101762.06
2023-04-27T15:47:49.379Z,101762.06
2023-04-27T15:50:51.087Z,101766.72
2023-04-27T15:53:52.649Z,101758.13
2023-04-27T15:56:54.511Z,101769.16
2023-04-27T15:59:56.638Z,101769.44
2023-04-27T16:02:58.699Z,101773.31
2023-04-27T16:06:00.623Z,101764.72
2023-04-27T16:09:03.708Z,101756.22
2023-04-27T16:12:06.255Z,101761.91
2023-04-27T16:15:10.963Z,101763.16
2023-04-27T16:18:13.256Z,101756.47
2023-04-27T16:21:14.988Z,101756.78
2023-04-27T16:24:16.617Z,101751.56
2023-04-27T16:27:20.213Z,101760.84
2023-04-27T16:30:22.466Z,101765.75
2023-04-27T16:33:24.009Z,101763.59
2023-04-27T16:36:25.611Z,101756.97
2023-04-27T16:39:27.239Z,101756.34
2023-04-27T16:42:28.851Z,101753.19
2023-04-27T16:45:30.825Z,101753.50
2023-04-27T16:48:32.431Z,101747.56
2023-04-27T16:51:34.162Z,101747.97
2023-04-27T16:54:35.690Z,101747.28
2023-04-27T16:57:37.225Z,101746.59
2023-04-27T17:00:40.367Z,101745.97
2023-04-27T17:03:42.020Z,101738.22
2023-04-27T17:06:45.898Z,101737.44
2023-04-27T17:09:47.425Z,101738.38
2023-04-27T17:12:49.047Z,101734.06
2023-04-27T17:15:51.815Z,101733.41
2023-04-27T17:18:54.569Z,101734.41
2023-04-27T17:21:56.366Z,101734.84
2023-04-27T17:24:58.033Z,101734.31
2023-04-27T17:28:01.237Z,101740.97
2023-04-27T17:31:03.395Z,101737.16
2023-04-27T17:34:05.027Z,101742.63
2023-04-27T17:37:07.355Z,101740.94
2023-04-27T17:40:09.439Z,101743.66
2023-04-27T17:43:11.031Z,101750.84
2023-04-27T17:46:12.628Z,101740.38
2023-04-27T17:49:17.958Z,101741.63
2023-04-27T17:52:19.931Z,101738.28
2023-04-27T17:55:22.185Z,101736.69
2023-04-27T17:58:23.785Z,101732.63
2023-04-27T18:01:25.414Z,101729.41
2023-04-27T18:04:27.232Z,101726.19
2023-04-27T18:07:28.888Z,101725.53
2023-04-27T18:10:30.393Z,101724.06
2023-04-27T18:13:32.623Z,101725.22
2023-04-27T18:16:34.197Z,101713.94
2023-04-27T18:19:35.788Z,101727.53
2023-04-27T18:22:40.031Z,101731.28
2023-04-27T18:25:41.882Z,101730.66
2023-04-27T18:28:43.493Z,101733.53
2023-04-27T18:31:45.494Z,101731.94
2023-04-27T18:34:47.055Z,101729.56
2023-04-27T18:37:49.299Z,101736.78
2023-04-27T18:40:50.833Z,101731.63
2023-04-27T18:43:52.427Z,101727.41
2023-04-27T18:46:54.035Z,101737.47
2023-04-27T18:49:55.633Z,101737.75
2023-04-27T18:52:59.185Z,101734.72
2023-04-27T18:56:00.870Z,101741.34
2023-04-27T18:59:02.488Z,101740.88
2023-04-27T19:02:04.500Z,101740.22
2023-04-27T19:05:12.899Z,101740.44
2023-04-27T19:08:15.713Z,101739.78
2023-04-27T19:11:19.468Z,101731.25
2023-04-27T19:14:21.079Z,101737.78
2023-04-27T19:17:22.858Z,101737.25
2023-04-27T19:20:24.490Z,101731.38
2023-04-27T19:23:26.134Z,101737.78
2023-04-27T19:26:29.630Z,101738.88
2023-04-27T19:29:31.386Z,101736.25
2023-04-27T19:32:34.073Z,101734.69
2023-04-27T19:35:35.842Z,101730.63
2023-04-27T19:38:37.384Z,101730.84
2023-04-27T19:41:39.721Z,101734.47
2023-04-27T19:44:41.694Z,101733.69
2023-04-27T19:47:43.495Z,101741.72
2023-04-27T19:50:45.196Z,101736.66
2023-04-27T19:53:46.770Z,101741.19
2023-04-27T19:56:48.417Z,101733.28
2023-04-27T19:59:50.031Z,101731.63
2023-04-27T20:02:53.549Z,101736.13
2023-04-27T20:05:55.822Z,101729.34
2023-04-27T20:08:57.644Z,101728.72
2023-04-27T20:11:59.355Z,101729.72
2023-04-27T20:15:01.113Z,101723.56
2023-04-27T20:18:02.758Z,101722.88
2023-04-27T20:21:04.421Z,101723.13
2023-04-27T20:24:06.390Z,101729.59
2023-04-27T20:27:08.353Z,101728.31
2023-04-27T20:30:10.144Z,101727.88
2023-04-27T20:33:13.723Z,101725.53
2023-04-27T20:36:18.227Z,101716.91
2023-04-27T20:39:20.429Z,101716.19
2023-04-27T20:42:22.591Z,101711.91
2023-04-27T20:45:25.469Z,101704.94
2023-04-27T20:48:28.562Z,101701.66
2023-04-27T20:51:30.774Z,101698.41
2023-04-27T20:54:32.979Z,101696.78
2023-04-27T20:57:34.614Z,101688.16
2023-04-27T21:00:36.213Z,101695.44
2023-04-27T21:03:37.878Z,101700.59
2023-04-27T21:06:39.660Z,101689.69
2023-04-27T21:09:41.661Z,101693.13
2023-04-27T21:12:43.199Z,101688.25
2023-04-27T21:15:44.699Z,101694.09
2023-04-27T21:18:46.293Z,101686.66
2023-04-27T21:21:47.871Z,101692.41
2023-04-27T21:24:49.468Z,101684.78
2023-04-27T21:27:51.115Z,101677.94
2023-04-27T21:30:52.770Z,101686.06
2023-04-27T21:33:54.366Z,101679.28
2023-04-27T21:36:55.982Z,101673.34
2023-04-27T21:39:57.538Z,101671.69
2023-04-27T21:42:59.114Z,101663.69
2023-04-27T21:46:00.771Z,101660.13
2023-04-27T21:49:03.347Z,101660.13
2023-04-27T21:52:05.063Z,101663.94
2023-04-27T21:55:06.687Z,101663.31
2023-04-27T21:58:08.246Z,101659.03
2023-04-27T22:01:11.191Z,101656.38
2023-04-27T22:04:13.139Z,101657.53
2023-04-27T22:07:14.853Z,101658.78
2023-04-27T22:10:16.386Z,101651.19
2023-04-27T22:13:19.573Z,101647.13
2023-04-27T22:16:22.143Z,101652.41
2023-04-27T22:19:25.352Z,101649.31
2023-04-27T22:22:26.994Z,101644.31
2023-04-27T22:25:28.680Z,101643.00
2023-04-27T22:28:30.828Z,101639.88
2023-04-27T22:31:32.673Z,101637.56
2023-04-27T22:34:34.285Z,101628.22
2023-04-27T22:37:36.507Z,101632.94
2023-04-27T22:40:38.079Z,101627.03
2023-04-27T22:43:39.611Z,101630.78
2023-04-27T22:46:43.527Z,101631.84
2023-04-27T22:49:45.079Z,101632.78
2023-04-27T22:52:46.849Z,101625.75
2023-04-27T22:55:48.403Z,101627.56
2023-04-27T22:58:50.046Z,101625.97
2023-04-27T23:01:52.106Z,101619.19
2023-04-27T23:04:53.732Z,101613.16
2023-04-27T23:07:55.307Z,101616.03
2023-04-27T23:10:57.671Z,101611.06
2023-04-27T23:13:59.214Z,101608.56
2023-04-27T23:17:01.921Z,101604.28
2023-04-27T23:20:20.417Z,101596.44
2023-04-27T23:23:28.651Z,101602.66
2023-04-27T23:26:30.177Z,101600.13
2023-04-27T23:29:31.739Z,101595.88
2023-04-27T23:32:34.415Z,101596.88
2023-04-27T23:35:36.105Z,101588.25
2023-04-27T23:38:37.700Z,101581.22
2023-04-27T23:41:39.223Z,101587.47
2023-04-27T23:44:40.781Z,101580.41
2023-04-27T23:47:42.988Z,101571.69
2023-04-27T23:50:44.796Z,101569.16
2023-04-27T23:53:46.294Z,101566.66
2023-04-27T23:56:47.851Z,101565.94
2023-04-27T23:59:49.469Z,101563.41
